sensor_id;sensor_type;location;lat;lon;timestamp;pressure;altitude;pressure_sealevel;temperature;humidity
4024;BME280;2026;51.002;13.668;2023-04-01T00:01:04;97216.31;;;10.00;91.88
4024;BME280;2026;51.002;13.668;2023-04-01T00:06:09;97231.19;;;9.89;92.94
4024;BME280;2026;51.002;13.668;2023-04-01T00:11:12;97231.41;;;9.87;92.96
4024;BME280;2026;51.002;13.668;2023-04-01T00:16:16;97215.19;;;9.90;93.04
4024;BME280;2026;51.002;13.668;2023-04-01T00:21:23;97217.28;;;9.83;93.60
4024;BME280;2026;51.002;13.668;2023-04-01T00:26:26;97219.63;;;9.85;93.64
4024;BME280;2026;51.002;13.668;2023-04-01T00:31:32;97222.50;;;9.83;93.88
4024;BME280;2026;51.002;13.668;2023-04-01T00:36:35;97222.47;;;9.78;94.22
4024;BME280;2026;51.002;13.668;2023-04-01T00:41:38;97224.28;;;9.77;94.52
4024;BME280;2026;51.002;13.668;2023-04-01T00:46:43;97225.75;;;9.63;95.34
4024;BME280;2026;51.002;13.668;2023-04-01T00:51:48;97233.41;;;9.70;95.32
4024;BME280;2026;51.002;13.668;2023-04-01T00:56:55;97200.44;;;9.69;94.77
4024;BME280;2026;51.002;13.668;2023-04-01T01:02:04;97232.81;;;9.62;94.70
4024;BME280;2026;51.002;13.668;2023-04-01T01:07:17;97226.88;;;9.72;93.99
4024;BME280;2026;51.002;13.668;2023-04-01T01:12:29;97228.16;;;9.70;94.09
4024;BME280;2026;51.002;13.668;2023-04-01T01:17:44;97234.47;;;9.74;93.60
4024;BME280;2026;51.002;13.668;2023-04-01T01:22:57;97228.16;;;9.70;93.71
4024;BME280;2026;51.002;13.668;2023-04-01T01:28:20;97210.88;;;9.69;93.91
4024;BME280;2026;51.002;13.668;2023-04-01T01:33:42;97224.47;;;9.66;94.03
4024;BME280;2026;51.002;13.668;2023-04-01T01:38:51;97222.84;;;9.59;94.21
4024;BME280;2026;51.002;13.668;2023-04-01T01:43:56;97219.22;;;9.60;93.84
4024;BME280;2026;51.002;13.668;2023-04-01T01:49:00;97220.22;;;9.59;94.11
4024;BME280;2026;51.002;13.668;2023-04-01T01:54:05;97224.44;;;9.60;93.88
4024;BME280;2026;51.002;13.668;2023-04-01T01:59:10;97227.06;;;9.66;93.69
4024;BME280;2026;51.002;13.668;2023-04-01T02:04:14;97219.69;;;9.57;93.85
4024;BME280;2026;51.002;13.668;2023-04-01T02:09:21;97219.09;;;9.50;93.88
4024;BME280;2026;51.002;13.668;2023-04-01T02:14:26;97209.50;;;9.61;93.04
4024;BME280;2026;51.002;13.668;2023-04-01T02:19:34;97218.16;;;9.61;92.85
4024;BME280;2026;51.002;13.668;2023-04-01T02:24:41;97229.22;;;9.69;92.06
4024;BME280;2026;51.002;13.668;2023-04-01T02:29:45;97218.13;;;9.56;92.66
4024;BME280;2026;51.002;13.668;2023-04-01T02:34:48;97227.81;;;9.61;92.30
4024;BME280;2026;51.002;13.668;2023-04-01T02:39:53;97227.63;;;9.68;91.70
4024;BME280;2026;51.002;13.668;2023-04-01T02:44:56;97237.06;;;9.69;91.25
4024;BME280;2026;51.002;13.668;2023-04-01T02:49:59;97239.63;;;9.63;91.93
4024;BME280;2026;51.002;13.668;2023-04-01T02:55:05;97239.13;;;9.67;91.43
4024;BME280;2026;51.002;13.668;2023-04-01T03:00:10;97237.75;;;9.59;91.73
4024;BME280;2026;51.002;13.668;2023-04-01T03:05:13;97247.66;;;9.52;92.05
4024;BME280;2026;51.002;13.668;2023-04-01T03:10:18;97247.53;;;9.41;92.37
4024;BME280;2026;51.002;13.668;2023-04-01T03:15:21;97244.00;;;9.53;91.55
4024;BME280;2026;51.002;13.668;2023-04-01T03:20:24;97244.94;;;9.46;91.77
4024;BME280;2026;51.002;13.668;2023-04-01T03:25:28;97246.03;;;9.50;91.41
4024;BME280;2026;51.002;13.668;2023-04-01T03:30:33;97254.63;;;9.46;91.45
4024;BME280;2026;51.002;13.668;2023-04-01T03:35:36;97255.16;;;9.48;91.44
4024;BME280;2026;51.002;13.668;2023-04-01T03:40:43;97260.72;;;9.52;90.92
4024;BME280;2026;51.002;13.668;2023-04-01T03:45:48;97248.59;;;9.45;90.87
4024;BME280;2026;51.002;13.668;2023-04-01T03:50:51;97249.22;;;9.53;90.76
4024;BME280;2026;51.002;13.668;2023-04-01T03:55:55;97254.38;;;9.47;90.21
4024;BME280;2026;51.002;13.668;2023-04-01T04:00:58;97261.44;;;9.47;90.82
4024;BME280;2026;51.002;13.668;2023-04-01T04:06:02;97261.22;;;9.48;90.06
4024;BME280;2026;51.002;13.668;2023-04-01T04:11:07;97266.69;;;9.47;89.89
4024;BME280;2026;51.002;13.668;2023-04-01T04:16:14;97266.00;;;9.57;89.37
4024;BME280;2026;51.002;13.668;2023-04-01T04:21:21;97275.06;;;9.49;89.01
4024;BME280;2026;51.002;13.668;2023-04-01T04:26:25;97282.00;;;9.60;88.58
4024;BME280;2026;51.002;13.668;2023-04-01T04:31:33;97287.41;;;9.54;88.87
4024;BME280;2026;51.002;13.668;2023-04-01T04:36:37;97285.16;;;9.62;88.20
4024;BME280;2026;51.002;13.668;2023-04-01T04:41:42;97287.97;;;9.56;88.54
4024;BME280;2026;51.002;13.668;2023-04-01T04:46:45;97293.22;;;9.56;88.38
4024;BME280;2026;51.002;13.668;2023-04-01T04:51:49;97294.81;;;9.62;88.38
4024;BME280;2026;51.002;13.668;2023-04-01T04:56:59;97295.84;;;9.56;88.50
4024;BME280;2026;51.002;13.668;2023-04-01T05:02:06;97298.78;;;9.64;88.65
4024;BME280;2026;51.002;13.668;2023-04-01T05:07:10;97310.50;;;9.57;89.37
4024;BME280;2026;51.002;13.668;2023-04-01T05:12:16;97320.69;;;9.58;89.60
4024;BME280;2026;51.002;13.668;2023-04-01T05:17:36;97320.69;;;9.58;90.50
4024;BME280;2026;51.002;13.668;2023-04-01T05:22:39;97325.63;;;9.55;89.87
4024;BME280;2026;51.002;13.668;2023-04-01T05:27:44;97329.88;;;9.61;89.31
4024;BME280;2026;51.002;13.668;2023-04-01T05:32:46;97331.75;;;9.66;89.75
4024;BME280;2026;51.002;13.668;2023-04-01T05:37:50;97330.16;;;9.64;90.63
4024;BME280;2026;51.002;13.668;2023-04-01T05:42:55;97331.50;;;9.67;90.44
4024;BME280;2026;51.002;13.668;2023-04-01T05:47:59;97343.03;;;9.71;90.00
4024;BME280;2026;51.002;13.668;2023-04-01T05:53:06;97318.50;;;9.77;89.20
4024;BME280;2026;51.002;13.668;2023-04-01T05:58:12;97326.16;;;9.84;88.88
4024;BME280;2026;51.002;13.668;2023-04-01T06:03:18;97334.31;;;9.88;88.82
4024;BME280;2026;51.002;13.668;2023-04-01T06:08:21;97343.69;;;9.84;89.25
4024;BME280;2026;51.002;13.668;2023-04-01T06:13:34;97339.50;;;10.15;87.48
4024;BME280;2026;51.002;13.668;2023-04-01T06:19:04;97338.22;;;10.23;87.12
4024;BME280;2026;51.002;13.668;2023-04-01T06:24:28;97348.47;;;10.25;86.19
4024;BME280;2026;51.002;13.668;2023-04-01T06:29:47;97352.25;;;10.44;85.75
4024;BME280;2026;51.002;13.668;2023-04-01T06:35:17;97353.09;;;10.55;85.43
4024;BME280;2026;51.002;13.668;2023-04-01T06:46:02;97349.50;;;10.72;84.59
4024;BME280;2026;51.002;13.668;2023-04-01T06:51:51;97358.69;;;10.69;84.17
4024;BME280;2026;51.002;13.668;2023-04-01T06:57:21;97361.41;;;10.85;82.76
4024;BME280;2026;51.002;13.668;2023-04-01T07:02:32;97361.94;;;10.92;82.27
4024;BME280;2026;51.002;13.668;2023-04-01T07:07:40;97366.16;;;10.98;82.26
4024;BME280;2026;51.002;13.668;2023-04-01T07:12:49;97366.44;;;11.02;82.26
4024;BME280;2026;51.002;13.668;2023-04-01T07:18:29;97369.38;;;11.16;81.80
4024;BME280;2026;51.002;13.668;2023-04-01T07:23:38;97374.09;;;11.09;81.75
4024;BME280;2026;51.002;13.668;2023-04-01T07:29:05;97385.88;;;11.11;81.96
4024;BME280;2026;51.002;13.668;2023-04-01T07:34:19;97377.25;;;11.16;80.91
4024;BME280;2026;51.002;13.668;2023-04-01T07:39:35;97389.44;;;11.43;81.79
4024;BME280;2026;51.002;13.668;2023-04-01T07:45:05;97389.44;;;11.53;80.11
4024;BME280;2026;51.002;13.668;2023-04-01T07:50:19;97392.66;;;11.66;79.61
4024;BME280;2026;51.002;13.668;2023-04-01T07:55:33;97403.47;;;12.27;77.78
4024;BME280;2026;51.002;13.668;2023-04-01T08:00:43;97402.88;;;12.82;77.25
4024;BME280;2026;51.002;13.668;2023-04-01T08:06:06;97405.56;;;13.47;74.67
4024;BME280;2026;51.002;13.668;2023-04-01T08:11:23;97408.03;;;13.79;74.12
4024;BME280;2026;51.002;13.668;2023-04-01T08:16:51;97406.63;;;13.46;73.36
4024;BME280;2026;51.002;13.668;2023-04-01T08:22:12;97415.44;;;14.11;72.14
4024;BME280;2026;51.002;13.668;2023-04-01T08:27:20;97418.41;;;13.59;71.91
4024;BME280;2026;51.002;13.668;2023-04-01T08:32:32;97405.56;;;13.42;72.27
4024;BME280;2026;51.002;13.668;2023-04-01T08:37:41;97409.31;;;13.31;73.25
4024;BME280;2026;51.002;13.668;2023-04-01T08:43:00;97423.81;;;13.79;73.21
4024;BME280;2026;51.002;13.668;2023-04-01T08:48:27;97427.09;;;13.60;71.65
4024;BME280;2026;51.002;13.668;2023-04-01T08:53:57;97427.44;;;13.38;73.63
4024;BME280;2026;51.002;13.668;2023-04-01T08:59:18;97420.41;;;13.17;75.51
4024;BME280;2026;51.002;13.668;2023-04-01T09:04:41;97427.50;;;13.22;73.65
4024;BME280;2026;51.002;13.668;2023-04-01T09:10:12;97429.66;;;13.04;74.71
4024;BME280;2026;51.002;13.668;2023-04-01T09:20:55;97432.75;;;13.22;72.69
4024;BME280;2026;51.002;13.668;2023-04-01T09:26:12;97433.56;;;13.17;72.92
4024;BME280;2026;51.002;13.668;2023-04-01T09:31:28;97439.97;;;12.80;73.61
4024;BME280;2026;51.002;13.668;2023-04-01T09:42:48;97439.38;;;13.09;72.81
4024;BME280;2026;51.002;13.668;2023-04-01T09:48:08;97447.75;;;13.32;72.80
4024;BME280;2026;51.002;13.668;2023-04-01T09:53:24;97441.75;;;13.16;71.53
4024;BME280;2026;51.002;13.668;2023-04-01T09:58:55;97442.53;;;13.22;71.54
4024;BME280;2026;51.002;13.668;2023-04-01T10:04:55;97440.84;;;13.41;70.74
4024;BME280;2026;51.002;13.668;2023-04-01T10:16:13;97448.06;;;13.15;71.71
4024;BME280;2026;51.002;13.668;2023-04-01T10:21:45;97469.38;;;13.08;72.95
4024;BME280;2026;51.002;13.668;2023-04-01T10:27:08;97459.94;;;12.97;73.77
4024;BME280;2026;51.002;13.668;2023-04-01T10:33:06;97457.84;;;12.62;75.05
4024;BME280;2026;51.002;13.668;2023-04-01T10:38:48;97460.75;;;12.50;74.63
4024;BME280;2026;51.002;13.668;2023-04-01T10:44:11;97459.41;;;12.89;75.22
4024;BME280;2026;51.002;13.668;2023-04-01T10:55:34;97459.03;;;13.43;74.32
4024;BME280;2026;51.002;13.668;2023-04-01T11:01:29;97445.56;;;14.00;73.27
4024;BME280;2026;51.002;13.668;2023-04-01T11:07:24;97454.78;;;14.37;72.15
4024;BME280;2026;51.002;13.668;2023-04-01T11:18:54;97447.06;;;14.11;70.98
4024;BME280;2026;51.002;13.668;2023-04-01T11:24:13;97454.63;;;14.23;70.01
4024;BME280;2026;51.002;13.668;2023-04-01T11:29:44;97462.16;;;14.00;73.04
4024;BME280;2026;51.002;13.668;2023-04-01T11:35:25;97470.22;;;13.74;72.94
4024;BME280;2026;51.002;13.668;2023-04-01T11:40:38;97468.69;;;14.08;79.07
4024;BME280;2026;51.002;13.668;2023-04-01T11:46:10;97462.56;;;14.18;79.80
4024;BME280;2026;51.002;13.668;2023-04-01T11:51:31;97457.69;;;14.36;76.80
4024;BME280;2026;51.002;13.668;2023-04-01T11:56:50;97458.97;;;14.78;77.97
4024;BME280;2026;51.002;13.668;2023-04-01T12:02:07;97454.19;;;14.11;75.78
4024;BME280;2026;51.002;13.668;2023-04-01T12:07:24;97456.00;;;13.70;75.09
4024;BME280;2026;51.002;13.668;2023-04-01T12:12:35;97456.13;;;13.39;80.04
4024;BME280;2026;51.002;13.668;2023-04-01T12:18:02;97459.44;;;13.66;75.96
4024;BME280;2026;51.002;13.668;2023-04-01T12:23:17;97452.41;;;13.51;78.02
4024;BME280;2026;51.002;13.668;2023-04-01T12:28:28;97451.38;;;13.46;77.51
4024;BME280;2026;51.002;13.668;2023-04-01T12:33:48;97461.75;;;13.17;78.13
4024;BME280;2026;51.002;13.668;2023-04-01T12:39:13;97462.78;;;13.21;73.83
4024;BME280;2026;51.002;13.668;2023-04-01T12:44:42;97461.03;;;13.67;71.48
4024;BME280;2026;51.002;13.668;2023-04-01T12:50:01;97469.09;;;13.81;71.86
4024;BME280;2026;51.002;13.668;2023-04-01T12:55:25;97471.34;;;14.48;66.04
4024;BME280;2026;51.002;13.668;2023-04-01T13:00:46;97468.53;;;15.47;65.13
4024;BME280;2026;51.002;13.668;2023-04-01T13:06:13;97477.13;;;15.34;63.80
4024;BME280;2026;51.002;13.668;2023-04-01T13:11:36;97479.59;;;14.31;65.27
4024;BME280;2026;51.002;13.668;2023-04-01T13:16:46;97488.38;;;14.91;65.45
4024;BME280;2026;51.002;13.668;2023-04-01T13:22:01;97476.50;;;14.64;64.97
4024;BME280;2026;51.002;13.668;2023-04-01T13:27:11;97485.88;;;14.75;65.20
4024;BME280;2026;51.002;13.668;2023-04-01T13:32:23;97485.81;;;14.56;66.29
4024;BME280;2026;51.002;13.668;2023-04-01T13:37:54;97491.13;;;14.80;62.86
4024;BME280;2026;51.002;13.668;2023-04-01T13:43:07;97490.47;;;14.94;62.72
4024;BME280;2026;51.002;13.668;2023-04-01T13:48:39;97492.41;;;15.12;64.25
4024;BME280;2026;51.002;13.668;2023-04-01T13:59:46;97496.63;;;14.54;65.47
4024;BME280;2026;51.002;13.668;2023-04-01T14:05:08;97494.25;;;14.53;65.06
4024;BME280;2026;51.002;13.668;2023-04-01T14:10:24;97500.59;;;15.35;64.54
4024;BME280;2026;51.002;13.668;2023-04-01T14:15:47;97505.81;;;14.92;63.62
4024;BME280;2026;51.002;13.668;2023-04-01T14:21:05;97507.38;;;14.93;65.56
4024;BME280;2026;51.002;13.668;2023-04-01T14:31:47;97506.59;;;14.92;65.52
4024;BME280;2026;51.002;13.668;2023-04-01T14:42:45;97530.41;;;14.42;69.17
4024;BME280;2026;51.002;13.668;2023-04-01T14:47:54;97535.19;;;14.40;70.32
4024;BME280;2026;51.002;13.668;2023-04-01T14:53:23;97537.94;;;14.19;68.50
4024;BME280;2026;51.002;13.668;2023-04-01T14:58:41;97539.22;;;13.77;70.40
4024;BME280;2026;51.002;13.668;2023-04-01T15:03:52;97541.16;;;13.45;68.34
4024;BME280;2026;51.002;13.668;2023-04-01T15:09:06;97547.56;;;13.89;67.96
4024;BME280;2026;51.002;13.668;2023-04-01T15:14:35;97548.25;;;14.15;69.39
4024;BME280;2026;51.002;13.668;2023-04-01T15:19:57;97555.94;;;14.07;69.39
4024;BME280;2026;51.002;13.668;2023-04-01T15:25:19;97549.31;;;14.14;70.41
4024;BME280;2026;51.002;13.668;2023-04-01T15:30:30;97559.09;;;14.09;69.93
4024;BME280;2026;51.002;13.668;2023-04-01T15:35:44;97559.66;;;14.00;70.74
4024;BME280;2026;51.002;13.668;2023-04-01T15:40:54;97563.94;;;13.86;71.67
4024;BME280;2026;51.002;13.668;2023-04-01T15:51:40;97575.13;;;13.26;74.20
4024;BME280;2026;51.002;13.668;2023-04-01T15:56:54;97581.47;;;13.30;73.50
4024;BME280;2026;51.002;13.668;2023-04-01T16:02:12;97575.94;;;13.26;73.34
4024;BME280;2026;51.002;13.668;2023-04-01T16:07:36;97583.06;;;13.05;75.92
4024;BME280;2026;51.002;13.668;2023-04-01T16:12:53;97592.00;;;13.30;76.26
4024;BME280;2026;51.002;13.668;2023-04-01T16:18:13;97589.88;;;13.37;76.01
4024;BME280;2026;51.002;13.668;2023-04-01T16:23:28;97599.66;;;13.16;76.02
4024;BME280;2026;51.002;13.668;2023-04-01T16:28:35;97607.00;;;13.19;76.47
4024;BME280;2026;51.002;13.668;2023-04-01T16:33:45;97609.38;;;13.15;77.51
4024;BME280;2026;51.002;13.668;2023-04-01T16:39:02;97618.84;;;13.16;78.64
4024;BME280;2026;51.002;13.668;2023-04-01T16:44:17;97630.94;;;13.07;80.09
4024;BME280;2026;51.002;13.668;2023-04-01T16:49:29;97633.00;;;12.94;81.37
4024;BME280;2026;51.002;13.668;2023-04-01T16:54:41;97648.00;;;12.89;82.99
4024;BME280;2026;51.002;13.668;2023-04-01T16:59:47;97651.94;;;12.86;83.07
4024;BME280;2026;51.002;13.668;2023-04-01T17:05:00;97654.59;;;12.81;84.52
4024;BME280;2026;51.002;13.668;2023-04-01T17:10:33;97656.09;;;12.51;87.86
4024;BME280;2026;51.002;13.668;2023-04-01T17:15:42;97671.81;;;12.35;89.13
4024;BME280;2026;51.002;13.668;2023-04-01T17:20:50;97678.88;;;12.35;90.18
4024;BME280;2026;51.002;13.668;2023-04-01T17:26:12;97680.88;;;12.07;90.98
4024;BME280;2026;51.002;13.668;2023-04-01T17:31:32;97682.94;;;12.05;92.00
4024;BME280;2026;51.002;13.668;2023-04-01T17:36:50;97687.34;;;11.89;92.34
4024;BME280;2026;51.002;13.668;2023-04-01T17:42:04;97696.28;;;11.93;91.61
4024;BME280;2026;51.002;13.668;2023-04-01T17:47:24;97698.22;;;12.08;91.30
4024;BME280;2026;51.002;13.668;2023-04-01T17:52:36;97706.72;;;11.82;92.23
4024;BME280;2026;51.002;13.668;2023-04-01T17:57:46;97712.69;;;11.73;93.35
4024;BME280;2026;51.002;13.668;2023-04-01T18:03:01;97717.72;;;11.74;93.14
4024;BME280;2026;51.002;13.668;2023-04-01T18:08:13;97718.72;;;11.68;93.67
4024;BME280;2026;51.002;13.668;2023-04-01T18:13:49;97717.72;;;11.74;93.29
4024;BME280;2026;51.002;13.668;2023-04-01T18:19:02;97730.25;;;11.67;93.70
4024;BME280;2026;51.002;13.668;2023-04-01T18:24:16;97734.34;;;11.52;95.12
4024;BME280;2026;51.002;13.668;2023-04-01T18:29:32;97740.63;;;11.51;94.43
4024;BME280;2026;51.002;13.668;2023-04-01T18:34:47;97749.38;;;11.62;93.57
4024;BME280;2026;51.002;13.668;2023-04-01T18:39:57;97746.97;;;11.55;93.72
4024;BME280;2026;51.002;13.668;2023-04-01T18:45:14;97748.97;;;11.43;94.84
4024;BME280;2026;51.002;13.668;2023-04-01T18:50:22;97755.78;;;11.44;94.98
4024;BME280;2026;51.002;13.668;2023-04-01T18:55:35;97759.94;;;11.40;94.40
4024;BME280;2026;51.002;13.668;2023-04-01T19:00:46;97772.06;;;11.46;94.22
4024;BME280;2026;51.002;13.668;2023-04-01T19:05:54;97770.44;;;11.40;94.33
4024;BME280;2026;51.002;13.668;2023-04-01T19:11:08;97779.31;;;11.39;94.24
4024;BME280;2026;51.002;13.668;2023-04-01T19:16:21;97781.66;;;11.35;94.70
4024;BME280;2026;51.002;13.668;2023-04-01T19:21:29;97789.78;;;11.34;94.80
4024;BME280;2026;51.002;13.668;2023-04-01T19:26:39;97788.81;;;11.40;94.31
4024;BME280;2026;51.002;13.668;2023-04-01T19:31:52;97790.53;;;11.29;95.46
4024;BME280;2026;51.002;13.668;2023-04-01T19:36:59;97799.75;;;11.32;95.39
4024;BME280;2026;51.002;13.668;2023-04-01T19:42:11;97803.28;;;11.20;94.81
4024;BME280;2026;51.002;13.668;2023-04-01T19:47:24;97808.03;;;11.23;94.89
4024;BME280;2026;51.002;13.668;2023-04-01T19:52:36;97815.00;;;11.35;95.01
4024;BME280;2026;51.002;13.668;2023-04-01T19:57:46;97829.34;;;11.27;95.48
4024;BME280;2026;51.002;13.668;2023-04-01T20:03:15;97840.38;;;11.07;96.23
4024;BME280;2026;51.002;13.668;2023-04-01T20:08:29;97843.09;;;11.12;96.53
4024;BME280;2026;51.002;13.668;2023-04-01T20:13:44;97854.34;;;10.90;98.40
4024;BME280;2026;51.002;13.668;2023-04-01T20:18:55;97858.88;;;10.95;98.28
4024;BME280;2026;51.002;13.668;2023-04-01T20:24:04;97861.69;;;10.88;98.79
4024;BME280;2026;51.002;13.668;2023-04-01T20:29:39;97873.25;;;10.92;98.95
4024;BME280;2026;51.002;13.668;2023-04-01T20:35:06;97875.19;;;10.97;98.35
4024;BME280;2026;51.002;13.668;2023-04-01T20:40:33;97879.84;;;10.95;98.72
4024;BME280;2026;51.002;13.668;2023-04-01T20:45:42;97875.41;;;10.95;98.50
4024;BME280;2026;51.002;13.668;2023-04-01T20:50:52;97887.38;;;10.86;98.43
4024;BME280;2026;51.002;13.668;2023-04-01T20:56:09;97892.44;;;10.76;99.00
4024;BME280;2026;51.002;13.668;2023-04-01T21:01:21;97899.91;;;10.84;98.87
4024;BME280;2026;51.002;13.668;2023-04-01T21:06:46;97900.22;;;10.87;98.83
4024;BME280;2026;51.002;13.668;2023-04-01T21:11:55;97901.31;;;10.92;98.39
4024;BME280;2026;51.002;13.668;2023-04-01T21:17:08;97909.19;;;10.92;98.48
4024;BME280;2026;51.002;13.668;2023-04-01T21:22:27;97914.44;;;10.92;98.07
4024;BME280;2026;51.002;13.668;2023-04-01T21:27:45;97926.19;;;10.89;98.55
4024;BME280;2026;51.002;13.668;2023-04-01T21:33:03;97928.81;;;10.89;97.61
4024;BME280;2026;51.002;13.668;2023-04-01T21:38:28;97934.75;;;10.62;100.00
4024;BME280;2026;51.002;13.668;2023-04-01T21:49:19;97941.09;;;10.66;100.00
4024;BME280;2026;51.002;13.668;2023-04-01T21:54:53;97946.00;;;10.63;100.00
4024;BME280;2026;51.002;13.668;2023-04-01T22:00:24;97949.34;;;10.58;100.00
4024;BME280;2026;51.002;13.668;2023-04-01T22:05:28;97955.72;;;10.62;100.00
4024;BME280;2026;51.002;13.668;2023-04-01T22:10:40;97961.78;;;9.87;100.00
4024;BME280;2026;51.002;13.668;2023-04-01T22:15:59;97972.13;;;9.65;100.00
4024;BME280;2026;51.002;13.668;2023-04-01T22:21:12;97967.59;;;9.60;100.00
4024;BME280;2026;51.002;13.668;2023-04-01T22:26:23;97972.72;;;9.55;100.00
4024;BME280;2026;51.002;13.668;2023-04-01T22:31:34;97981.59;;;9.54;100.00
4024;BME280;2026;51.002;13.668;2023-04-01T22:36:46;97987.75;;;9.00;100.00
4024;BME280;2026;51.002;13.668;2023-04-01T22:42:03;97986.16;;;8.99;100.00
4024;BME280;2026;51.002;13.668;2023-04-01T22:47:17;97995.59;;;9.00;100.00
4024;BME280;2026;51.002;13.668;2023-04-01T22:52:28;98007.44;;;9.15;100.00
4024;BME280;2026;51.002;13.668;2023-04-01T22:57:45;98009.75;;;8.68;100.00
4024;BME280;2026;51.002;13.668;2023-04-01T23:03:04;98021.03;;;8.69;100.00
4024;BME280;2026;51.002;13.668;2023-04-01T23:08:36;98032.72;;;8.66;100.00
4024;BME280;2026;51.002;13.668;2023-04-01T23:13:47;98038.75;;;8.67;100.00
4024;BME280;2026;51.002;13.668;2023-04-01T23:19:00;98047.66;;;8.47;100.00
4024;BME280;2026;51.002;13.668;2023-04-01T23:24:15;98046.84;;;8.77;100.00
4024;BME280;2026;51.002;13.668;2023-04-01T23:29:22;98059.66;;;8.67;100.00
4024;BME280;2026;51.002;13.668;2023-04-01T23:34:29;98075.19;;;8.62;100.00
4024;BME280;2026;51.002;13.668;2023-04-01T23:39:34;98078.56;;;8.20;100.00
4024;BME280;2026;51.002;13.668;2023-04-01T23:44:39;98083.47;;;8.28;100.00
4024;BME280;2026;51.002;13.668;2023-04-01T23:49:45;98089.41;;;8.35;100.00
4024;BME280;2026;51.002;13.668;2023-04-01T23:54:53;98098.50;;;8.14;100.00
